createdAt,value
2022-11-23T00:01:32.788Z,10.60
2022-11-23T00:04:03.223Z,11.53
2022-11-23T00:06:31.188Z,11.00
2022-11-23T00:08:58.292Z,11.53
2022-11-23T00:11:26.575Z,11.57
2022-11-23T00:13:54.116Z,12.10
2022-11-23T00:16:23.558Z,14.43
2022-11-23T00:18:54.089Z,13.10
2022-11-23T00:21:22.156Z,13.00
2022-11-23T00:23:49.852Z,12.83
2022-11-23T00:26:18.341Z,13.90
2022-11-23T00:28:45.745Z,13.13
2022-11-23T00:31:15.038Z,12.93
2022-11-23T00:33:47.849Z,14.03
2022-11-23T00:36:16.362Z,14.97
2022-11-23T00:38:44.747Z,14.30
2022-11-23T00:41:17.434Z,14.13
2022-11-23T00:43:44.208Z,15.43
2022-11-23T00:46:25.388Z,15.40
2022-11-23T00:48:54.278Z,15.67
2022-11-23T00:51:24.690Z,15.03
2022-11-23T00:53:52.250Z,14.03
2022-11-23T00:56:20.051Z,14.57
2022-11-23T00:58:50.771Z,15.00
2022-11-23T01:01:20.184Z,14.37
2022-11-23T01:03:50.048Z,14.47
2022-11-23T01:06:22.562Z,13.10
2022-11-23T01:08:58.988Z,13.10
2022-11-23T01:11:27.914Z,13.63
2022-11-23T01:13:55.317Z,13.77
2022-11-23T01:16:33.855Z,13.43
2022-11-23T01:19:03.311Z,13.03
2022-11-23T01:21:31.382Z,13.13
2022-11-23T01:23:59.362Z,12.57
2022-11-23T01:26:26.501Z,13.83
2022-11-23T01:28:53.186Z,13.77
2022-11-23T01:31:25.201Z,14.83
2022-11-23T01:33:57.027Z,13.70
2022-11-23T01:36:26.479Z,14.73
2022-11-23T01:38:53.849Z,14.80
2022-11-23T01:41:30.881Z,13.43
2022-11-23T01:43:57.850Z,13.87
2022-11-23T01:46:25.460Z,13.57
2022-11-23T01:48:55.642Z,12.07
2022-11-23T01:51:28.950Z,12.27
2022-11-23T01:54:00.793Z,12.23
2022-11-23T01:56:33.004Z,12.63
2022-11-23T01:59:05.006Z,12.10
2022-11-23T02:01:32.094Z,11.20
2022-11-23T02:04:01.274Z,12.27
2022-11-23T02:06:29.964Z,11.27
2022-11-23T02:08:57.175Z,10.53
2022-11-23T02:11:23.958Z,10.37
2022-11-23T02:13:51.707Z,9.57
2022-11-23T02:16:19.222Z,10.67
2022-11-23T02:18:49.561Z,10.70
2022-11-23T02:21:20.008Z,9.90
2022-11-23T02:24:00.256Z,9.70
2022-11-23T02:26:33.166Z,9.07
2022-11-23T02:29:23.207Z,9.23
2022-11-23T02:31:51.846Z,8.83
2022-11-23T02:34:18.754Z,8.07
2022-11-23T02:36:51.552Z,9.13
2022-11-23T02:39:26.355Z,9.17
2022-11-23T02:41:54.042Z,9.00
2022-11-23T02:44:27.063Z,8.40
2022-11-23T02:46:54.382Z,8.73
2022-11-23T02:49:21.327Z,10.00
2022-11-23T02:51:51.237Z,10.10
2022-11-23T02:54:18.128Z,9.80
2022-11-23T02:56:44.919Z,9.50
2022-11-23T02:59:11.947Z,8.97
2022-11-23T03:01:40.219Z,9.57
2022-11-23T03:04:07.674Z,8.33
2022-11-23T03:06:34.547Z,8.27
2022-11-23T03:09:01.303Z,9.00
2022-11-23T03:11:27.994Z,8.87
2022-11-23T03:13:55.532Z,8.63
2022-11-23T03:16:23.273Z,8.53
2022-11-23T03:18:50.934Z,9.47
2022-11-23T03:21:18.887Z,7.97
2022-11-23T03:23:45.923Z,8.50
2022-11-23T03:26:13.876Z,8.70
2022-11-23T03:28:53.577Z,7.70
2022-11-23T03:31:21.795Z,8.03
2022-11-23T03:33:49.350Z,7.30
2022-11-23T03:36:16.360Z,9.03
2022-11-23T03:38:47.030Z,7.73
2022-11-23T03:41:30.212Z,7.47
2022-11-23T03:43:59.283Z,7.63
2022-11-23T03:46:26.034Z,7.33
2022-11-23T03:48:52.887Z,6.80
2022-11-23T03:51:21.012Z,5.30
2022-11-23T03:53:47.745Z,6.57
2022-11-23T03:56:15.135Z,6.50
2022-11-23T03:58:45.864Z,6.47
2022-11-23T04:01:14.450Z,6.50
2022-11-23T04:03:44.250Z,6.13
2022-11-23T04:06:18.430Z,5.27
2022-11-23T04:08:51.134Z,6.47
2022-11-23T04:11:34.768Z,6.23
2022-11-23T04:14:01.590Z,6.07
2022-11-23T04:16:29.142Z,5.80
2022-11-23T04:18:56.034Z,6.30
2022-11-23T04:21:22.921Z,5.83
2022-11-23T04:23:49.625Z,5.53
2022-11-23T04:26:16.515Z,6.33
2022-11-23T04:28:45.944Z,5.87
2022-11-23T04:31:13.278Z,6.20
2022-11-23T04:33:57.119Z,6.00
2022-11-23T04:36:25.298Z,5.90
2022-11-23T04:38:52.651Z,5.23
2022-11-23T04:41:24.365Z,6.13
2022-11-23T04:43:51.958Z,6.07
2022-11-23T04:46:19.124Z,6.90
2022-11-23T04:48:46.234Z,5.90
2022-11-23T04:51:16.596Z,5.90
2022-11-23T04:53:43.531Z,5.83
2022-11-23T04:56:10.334Z,6.10
2022-11-23T04:58:39.807Z,6.77
2022-11-23T05:01:07.190Z,6.10
2022-11-23T05:03:42.618Z,6.00
2022-11-23T05:06:10.102Z,5.37
2022-11-23T05:08:43.033Z,5.57
2022-11-23T05:11:27.093Z,4.83
2022-11-23T05:13:56.380Z,5.63
2022-11-23T05:16:23.193Z,5.37
2022-11-23T05:18:50.280Z,5.43
2022-11-23T05:21:17.171Z,5.70
2022-11-23T05:23:44.177Z,4.83
2022-11-23T05:26:11.173Z,5.00
2022-11-23T05:28:40.580Z,5.47
2022-11-23T05:31:09.663Z,5.30
2022-11-23T05:33:37.160Z,5.23
2022-11-23T05:36:07.556Z,5.30
2022-11-23T05:38:37.964Z,5.27
2022-11-23T05:41:10.773Z,5.00
2022-11-23T05:43:40.751Z,5.47
2022-11-23T05:46:10.026Z,4.90
2022-11-23T05:48:38.402Z,5.13
2022-11-23T05:51:10.087Z,4.80
2022-11-23T05:53:41.759Z,5.47
2022-11-23T05:56:16.061Z,5.13
2022-11-23T05:58:58.027Z,5.80
2022-11-23T06:01:24.828Z,4.60
2022-11-23T06:03:54.241Z,5.87
2022-11-23T06:06:21.032Z,5.33
2022-11-23T06:08:49.232Z,5.20
2022-11-23T06:11:17.354Z,5.67
2022-11-23T06:13:47.780Z,5.30
2022-11-23T06:16:16.298Z,6.57
2022-11-23T06:18:55.832Z,6.33
2022-11-23T06:21:22.746Z,7.53
2022-11-23T06:23:49.646Z,6.70
2022-11-23T06:26:17.440Z,5.70
2022-11-23T06:28:44.278Z,5.53
2022-11-23T06:31:11.293Z,4.90
2022-11-23T06:33:38.692Z,5.07
2022-11-23T06:36:05.951Z,4.33
2022-11-23T06:38:38.501Z,4.00
2022-11-23T06:41:13.647Z,4.13
2022-11-23T06:43:40.412Z,4.37
2022-11-23T06:46:07.847Z,4.70
2022-11-23T06:48:39.394Z,4.73
2022-11-23T06:51:07.466Z,4.23
2022-11-23T06:53:36.283Z,5.07
2022-11-23T06:56:06.498Z,3.93
2022-11-23T06:58:33.659Z,3.80
2022-11-23T07:01:06.472Z,4.07
2022-11-23T07:03:39.726Z,4.07
2022-11-23T07:06:17.378Z,4.50
2022-11-23T07:08:44.443Z,4.07
2022-11-23T07:11:33.089Z,3.53
2022-11-23T07:14:00.535Z,4.30
2022-11-23T07:16:29.447Z,3.60
2022-11-23T07:18:58.225Z,3.57
2022-11-23T07:21:25.867Z,3.87
2022-11-23T07:23:52.630Z,3.83
2022-11-23T07:26:19.743Z,3.53
2022-11-23T07:28:46.724Z,3.57
2022-11-23T07:31:16.041Z,4.50
2022-11-23T07:33:46.613Z,4.10
2022-11-23T07:36:14.340Z,4.03
2022-11-23T07:38:42.926Z,4.23
2022-11-23T07:41:11.571Z,4.63
2022-11-23T07:43:58.938Z,3.80
2022-11-23T07:46:25.810Z,3.63
2022-11-23T07:48:54.354Z,3.80
2022-11-23T07:51:21.220Z,3.47
2022-11-23T07:53:48.031Z,3.33
2022-11-23T07:56:14.903Z,3.17
2022-11-23T07:58:44.161Z,3.73
2022-11-23T08:01:17.867Z,3.67
2022-11-23T08:03:48.603Z,4.73
2022-11-23T08:06:16.017Z,4.57
2022-11-23T08:08:43.158Z,3.33
2022-11-23T08:11:11.177Z,3.57
2022-11-23T08:13:37.910Z,4.23
2022-11-23T08:16:04.803Z,3.43
2022-11-23T08:18:31.874Z,3.30
2022-11-23T08:21:01.749Z,3.30
2022-11-23T08:23:28.846Z,4.23
2022-11-23T08:25:56.059Z,2.50
2022-11-23T08:28:23.219Z,3.17
2022-11-23T08:30:50.223Z,2.47
2022-11-23T08:33:17.188Z,2.90
2022-11-23T08:35:44.056Z,2.97
2022-11-23T08:38:11.467Z,2.80
2022-11-23T08:40:38.996Z,2.63
2022-11-23T08:43:05.885Z,2.93
2022-11-23T08:45:32.818Z,2.93
2022-11-23T08:48:03.892Z,3.00
2022-11-23T08:50:31.317Z,2.87
2022-11-23T08:52:59.394Z,2.97
2022-11-23T08:55:27.632Z,3.10
2022-11-23T08:57:58.867Z,2.80
2022-11-23T09:00:26.800Z,2.83
2022-11-23T09:02:53.922Z,2.90
2022-11-23T09:05:21.061Z,2.77
2022-11-23T09:07:47.900Z,3.73
2022-11-23T09:10:18.333Z,3.43
2022-11-23T09:12:46.860Z,3.40
2022-11-23T09:15:13.705Z,3.63
2022-11-23T09:17:40.408Z,3.47
2022-11-23T09:20:08.130Z,3.93
2022-11-23T09:22:34.907Z,3.23
2022-11-23T09:25:02.497Z,3.60
2022-11-23T09:27:29.714Z,3.27
2022-11-23T09:29:56.431Z,3.10
2022-11-23T09:32:23.233Z,2.30
2022-11-23T09:34:50.162Z,3.03
2022-11-23T09:37:16.966Z,3.43
2022-11-23T09:39:43.799Z,3.13
2022-11-23T09:42:25.604Z,2.57
2022-11-23T09:45:06.584Z,2.77
2022-11-23T09:47:55.073Z,2.70
2022-11-23T09:50:30.246Z,2.30
2022-11-23T09:52:57.228Z,2.87
2022-11-23T09:55:37.679Z,2.80
2022-11-23T09:58:06.360Z,2.50
2022-11-23T10:00:39.139Z,2.70
2022-11-23T10:03:06.179Z,2.93
2022-11-23T10:05:37.008Z,2.73
2022-11-23T10:08:15.111Z,2.80
2022-11-23T10:10:45.395Z,2.77
2022-11-23T10:13:28.257Z,2.60
2022-11-23T10:16:04.068Z,2.70
2022-11-23T10:18:49.222Z,2.60
2022-11-23T10:21:49.687Z,3.03
2022-11-23T10:24:25.133Z,2.43
2022-11-23T10:26:51.892Z,2.93
2022-11-23T10:29:33.439Z,2.80
2022-11-23T10:32:01.181Z,2.93
2022-11-23T10:34:55.831Z,3.40
2022-11-23T10:37:22.820Z,3.13
2022-11-23T10:39:49.689Z,2.40
2022-11-23T10:42:41.490Z,2.50
2022-11-23T10:45:20.121Z,2.40
2022-11-23T10:47:55.813Z,2.97
2022-11-23T10:50:30.236Z,2.87
2022-11-23T10:53:12.436Z,2.27
2022-11-23T10:55:55.232Z,2.30
2022-11-23T10:58:44.182Z,2.83
2022-11-23T11:01:17.015Z,2.90
2022-11-23T11:03:43.822Z,2.70
2022-11-23T11:06:11.707Z,2.60
2022-11-23T11:09:02.723Z,2.73
2022-11-23T11:11:39.789Z,2.40
2022-11-23T11:14:18.483Z,2.90
2022-11-23T11:16:56.673Z,2.50
2022-11-23T11:19:36.526Z,2.33
2022-11-23T11:22:27.886Z,2.53
2022-11-23T11:24:55.003Z,3.17
2022-11-23T11:27:24.555Z,2.73
2022-11-23T11:29:54.457Z,2.20
2022-11-23T11:32:34.320Z,2.50
2022-11-23T11:35:08.162Z,3.10
2022-11-23T11:37:44.764Z,2.67
2022-11-23T11:40:36.867Z,2.53
2022-11-23T11:43:39.432Z,2.53
2022-11-23T11:46:28.996Z,2.43
2022-11-23T11:49:05.756Z,2.40
2022-11-23T11:51:38.302Z,3.57
2022-11-23T11:54:42.373Z,2.43
2022-11-23T11:57:54.744Z,3.80
2022-11-23T12:00:21.633Z,2.07
2022-11-23T12:03:06.428Z,2.47
2022-11-23T12:05:46.607Z,2.80
2022-11-23T12:08:19.421Z,2.60
2022-11-23T12:10:59.202Z,2.13
2022-11-23T12:13:29.456Z,2.10
2022-11-23T12:16:28.484Z,2.17
2022-11-23T12:19:16.577Z,2.33
2022-11-23T12:21:55.749Z,1.97
2022-11-23T12:24:28.827Z,2.47
2022-11-23T12:27:09.991Z,2.13
2022-11-23T12:29:55.188Z,2.10
2022-11-23T12:32:47.090Z,1.83
2022-11-23T12:35:28.850Z,1.50
2022-11-23T12:38:25.533Z,1.63
2022-11-23T12:41:17.251Z,1.90
2022-11-23T12:44:04.256Z,1.73
2022-11-23T12:46:33.723Z,1.60
2022-11-23T12:49:06.683Z,1.70
2022-11-23T12:51:59.096Z,1.30
2022-11-23T12:54:36.164Z,1.50
2022-11-23T12:57:30.906Z,1.97
2022-11-23T13:00:03.120Z,1.60
2022-11-23T13:02:36.870Z,2.37
2022-11-23T13:05:29.983Z,2.00
2022-11-23T13:08:30.600Z,1.93
2022-11-23T13:11:19.409Z,1.63
2022-11-23T13:13:59.196Z,1.60
2022-11-23T13:16:37.125Z,1.77
2022-11-23T13:19:12.709Z,2.00
2022-11-23T13:21:45.010Z,1.87
2022-11-23T13:24:30.363Z,1.60
2022-11-23T13:27:15.739Z,1.70
2022-11-23T13:29:51.707Z,1.77
2022-11-23T13:32:43.006Z,1.73
2022-11-23T13:35:19.005Z,1.90
2022-11-23T13:37:57.746Z,1.70
2022-11-23T13:40:33.587Z,1.37
2022-11-23T13:43:12.904Z,3.03
2022-11-23T13:45:39.841Z,1.83
2022-11-23T13:48:09.748Z,2.50
2022-11-23T13:50:36.633Z,3.27
2022-11-23T13:53:24.378Z,3.43
2022-11-23T13:55:54.645Z,5.37
2022-11-23T13:58:24.270Z,4.93
2022-11-23T14:00:59.450Z,2.73
2022-11-23T14:03:49.172Z,2.20
2022-11-23T14:06:24.931Z,1.70
2022-11-23T14:09:04.373Z,1.63
2022-11-23T14:11:39.769Z,1.40
2022-11-23T14:14:16.100Z,1.70
2022-11-23T14:16:53.692Z,1.40
2022-11-23T14:19:26.952Z,1.83
2022-11-23T14:22:26.276Z,1.60
2022-11-23T14:25:17.155Z,1.87
2022-11-23T14:28:15.258Z,1.60
2022-11-23T14:30:48.068Z,1.80
2022-11-23T14:33:26.863Z,2.90
2022-11-23T14:36:05.646Z,2.20
2022-11-23T14:39:09.997Z,1.90
2022-11-23T14:41:37.726Z,2.50
2022-11-23T14:44:06.259Z,2.50
2022-11-23T14:46:33.040Z,1.90
2022-11-23T14:49:15.023Z,2.63
2022-11-23T14:51:43.995Z,2.00
2022-11-23T14:54:11.683Z,2.80
2022-11-23T14:56:45.094Z,2.37
2022-11-23T14:59:28.654Z,1.97
2022-11-23T15:02:05.992Z,1.80
2022-11-23T15:04:40.783Z,2.40
2022-11-23T15:07:21.270Z,2.17
2022-11-23T15:10:06.581Z,2.00
2022-11-23T15:12:43.674Z,2.40
2022-11-23T15:15:26.471Z,2.57
2022-11-23T15:17:55.760Z,2.83
2022-11-23T15:20:26.816Z,2.00
2022-11-23T15:22:53.591Z,2.10
2022-11-23T15:25:20.337Z,2.40
2022-11-23T15:27:51.394Z,2.43
2022-11-23T15:30:27.249Z,2.20
2022-11-23T15:32:59.822Z,2.40
2022-11-23T15:35:33.530Z,2.77
2022-11-23T15:38:01.890Z,2.63
2022-11-23T15:40:32.451Z,2.80
2022-11-23T15:42:59.373Z,2.60
2022-11-23T15:45:35.615Z,2.30
2022-11-23T15:48:04.779Z,2.37
2022-11-23T15:50:34.172Z,2.37
2022-11-23T15:53:02.266Z,2.53
2022-11-23T15:55:30.139Z,2.40
2022-11-23T15:57:57.940Z,2.53
2022-11-23T16:00:25.949Z,2.50
2022-11-23T16:02:53.029Z,2.70
2022-11-23T16:05:23.074Z,2.50
2022-11-23T16:07:58.583Z,3.07
2022-11-23T16:10:31.895Z,3.93
2022-11-23T16:13:01.288Z,3.00
2022-11-23T16:15:37.806Z,2.70
2022-11-23T16:18:17.963Z,3.03
2022-11-23T16:20:50.314Z,3.30
2022-11-23T16:23:27.901Z,3.50
2022-11-23T16:26:01.138Z,3.63
2022-11-23T16:28:29.768Z,3.27
2022-11-23T16:30:57.821Z,3.73
2022-11-23T16:33:25.191Z,4.07
2022-11-23T16:35:52.272Z,4.20
2022-11-23T16:38:19.687Z,4.77
2022-11-23T16:40:50.016Z,4.70
2022-11-23T16:43:17.695Z,5.20
2022-11-23T16:45:46.697Z,4.77
2022-11-23T16:48:41.382Z,5.03
2022-11-23T16:51:10.955Z,5.27
2022-11-23T16:54:11.359Z,5.70
2022-11-23T16:56:28.748Z,5.20
2022-11-23T16:58:55.930Z,5.97
2022-11-23T17:01:26.546Z,5.50
2022-11-23T17:03:53.417Z,4.87
2022-11-23T17:06:23.470Z,5.97
2022-11-23T17:08:59.366Z,4.53
2022-11-23T17:11:28.756Z,5.30
2022-11-23T17:13:56.467Z,6.10
2022-11-23T17:16:26.114Z,6.07
2022-11-23T17:18:53.471Z,5.70
2022-11-23T17:21:20.543Z,5.97
2022-11-23T17:23:47.355Z,7.03
2022-11-23T17:26:36.451Z,7.37
2022-11-23T17:29:05.741Z,8.67
2022-11-23T17:31:32.599Z,9.10
2022-11-23T17:33:59.400Z,7.00
2022-11-23T17:36:26.873Z,7.33
2022-11-23T17:38:54.408Z,7.00
2022-11-23T17:41:21.132Z,6.57
2022-11-23T17:43:47.893Z,7.67
2022-11-23T17:46:24.697Z,7.60
2022-11-23T17:49:01.978Z,7.00
2022-11-23T17:51:29.244Z,7.47
2022-11-23T17:53:56.048Z,9.07
2022-11-23T17:56:25.701Z,10.43
2022-11-23T17:58:52.895Z,9.23
2022-11-23T18:01:21.630Z,8.97
2022-11-23T18:03:49.011Z,9.30
2022-11-23T18:06:21.185Z,9.73
2022-11-23T18:08:49.029Z,8.17
2022-11-23T18:11:16.427Z,9.70
2022-11-23T18:13:43.642Z,8.80
2022-11-23T18:16:11.152Z,11.07
2022-11-23T18:18:38.267Z,23.30
2022-11-23T18:21:05.589Z,12.23
2022-11-23T18:23:32.551Z,9.87
2022-11-23T18:26:05.515Z,11.40
2022-11-23T18:28:32.495Z,11.93
2022-11-23T18:30:59.294Z,12.03
2022-11-23T18:33:26.255Z,13.50
2022-11-23T18:35:53.019Z,18.57
2022-11-23T18:38:19.791Z,14.70
2022-11-23T18:40:46.655Z,13.37
2022-11-23T18:43:13.468Z,12.40
2022-11-23T18:45:40.679Z,14.23
2022-11-23T18:48:08.907Z,13.43
2022-11-23T18:50:36.761Z,13.03
2022-11-23T18:53:03.715Z,12.23
2022-11-23T18:55:30.482Z,14.53
2022-11-23T18:57:57.232Z,10.30
2022-11-23T19:00:24.254Z,12.93
2022-11-23T19:02:54.570Z,11.77
2022-11-23T19:05:22.331Z,11.73
2022-11-23T19:07:49.536Z,11.47
2022-11-23T19:10:16.721Z,10.20
2022-11-23T19:12:43.882Z,10.07
2022-11-23T19:15:11.995Z,9.57
2022-11-23T19:17:38.889Z,9.20
2022-11-23T19:20:08.244Z,10.33
2022-11-23T19:22:36.244Z,8.87
2022-11-23T19:25:03.329Z,9.30
2022-11-23T19:27:35.814Z,8.60
2022-11-23T19:30:05.365Z,9.10
2022-11-23T19:32:33.638Z,8.50
2022-11-23T19:35:00.482Z,9.77
2022-11-23T19:37:27.423Z,9.60
2022-11-23T19:39:54.182Z,9.50
2022-11-23T19:42:20.991Z,11.53
2022-11-23T19:44:47.725Z,23.27
2022-11-23T19:47:19.923Z,11.50
2022-11-23T19:49:49.268Z,13.77
2022-11-23T19:52:16.384Z,12.40
2022-11-23T19:54:43.191Z,10.80
2022-11-23T19:57:10.561Z,9.70
2022-11-23T19:59:37.311Z,10.20
2022-11-23T20:02:04.417Z,9.67
2022-11-23T20:04:31.592Z,10.70
2022-11-23T20:06:58.515Z,9.70
2022-11-23T20:09:27.632Z,9.53
2022-11-23T20:11:54.551Z,9.10
2022-11-23T20:14:21.392Z,7.70
2022-11-23T20:16:48.344Z,10.07
2022-11-23T20:19:15.099Z,9.33
2022-11-23T20:21:41.964Z,8.80
2022-11-23T20:24:12.265Z,8.73
2022-11-23T20:26:39.702Z,8.30
2022-11-23T20:29:07.992Z,7.20
2022-11-23T20:31:35.784Z,6.90
2022-11-23T20:34:06.602Z,8.47
2022-11-23T20:36:36.760Z,8.73
2022-11-23T20:39:06.550Z,7.70
2022-11-23T20:41:35.511Z,8.83
2022-11-23T20:44:09.172Z,8.27
2022-11-23T20:49:22.855Z,10.33
2022-11-23T20:51:49.687Z,8.80
2022-11-23T20:54:16.563Z,9.23
2022-11-23T20:56:43.335Z,6.83
2022-11-23T20:59:12.271Z,7.57
2022-11-23T21:01:40.645Z,8.37
2022-11-23T21:04:08.982Z,8.70
2022-11-23T21:06:39.514Z,7.97
2022-11-23T21:09:07.720Z,9.00
2022-11-23T21:11:53.028Z,10.13
2022-11-23T21:14:22.508Z,10.90
2022-11-23T21:16:58.643Z,8.27
2022-11-23T21:19:34.003Z,8.23
2022-11-23T21:22:09.323Z,8.07
2022-11-23T21:24:37.181Z,7.73
2022-11-23T21:27:05.840Z,6.77
2022-11-23T21:29:33.330Z,7.80
2022-11-23T21:32:01.579Z,8.53
2022-11-23T21:34:29.720Z,7.37
2022-11-23T21:36:57.783Z,7.40
2022-11-23T21:39:25.053Z,9.60
2022-11-23T21:41:53.710Z,7.20
2022-11-23T21:44:22.037Z,11.70
2022-11-23T21:46:49.029Z,7.93
2022-11-23T21:49:15.903Z,9.23
2022-11-23T21:51:43.784Z,7.67
2022-11-23T21:54:13.973Z,7.87
2022-11-23T21:56:42.373Z,7.53
2022-11-23T21:59:09.654Z,8.13
2022-11-23T22:01:37.701Z,6.93
2022-11-23T22:04:08.744Z,7.33
2022-11-23T22:06:36.873Z,8.07
2022-11-23T22:09:04.931Z,8.20
2022-11-23T22:11:33.980Z,8.53
2022-11-23T22:14:04.704Z,7.87
2022-11-23T22:16:35.621Z,7.17
2022-11-23T22:19:03.401Z,10.17
2022-11-23T22:21:34.572Z,9.27
2022-11-23T22:24:01.577Z,7.60
2022-11-23T22:26:28.607Z,7.27
2022-11-23T22:28:56.293Z,7.40
2022-11-23T22:31:25.002Z,6.10
2022-11-23T22:33:54.912Z,7.13
2022-11-23T22:36:24.070Z,7.23
2022-11-23T22:39:01.301Z,6.77
2022-11-23T22:41:29.316Z,6.70
2022-11-23T22:43:56.498Z,6.60
2022-11-23T22:46:25.089Z,6.80
2022-11-23T22:48:53.250Z,6.37
2022-11-23T22:51:22.444Z,6.40
2022-11-23T22:53:53.842Z,6.83
2022-11-23T22:56:21.388Z,6.63
2022-11-23T22:58:48.880Z,5.73
2022-11-23T23:01:24.458Z,6.40
2022-11-23T23:03:56.350Z,5.07
2022-11-23T23:06:25.864Z,6.07
2022-11-23T23:08:57.716Z,6.07
2022-11-23T23:11:26.479Z,5.60
2022-11-23T23:13:53.688Z,5.20
2022-11-23T23:16:21.098Z,5.80
2022-11-23T23:18:47.932Z,5.50
2022-11-23T23:21:17.803Z,6.07
2022-11-23T23:23:46.690Z,5.40
2022-11-23T23:26:15.970Z,5.90
2022-11-23T23:28:43.192Z,5.47
2022-11-23T23:31:12.628Z,5.83
2022-11-23T23:33:39.897Z,6.20
2022-11-23T23:36:17.699Z,5.80
2022-11-23T23:38:44.575Z,6.17
2022-11-23T23:41:12.625Z,6.00
2022-11-23T23:43:39.957Z,6.03
2022-11-23T23:46:09.482Z,5.13
2022-11-23T23:48:38.206Z,5.13
2022-11-23T23:51:22.873Z,5.23
2022-11-23T23:53:51.362Z,5.67
2022-11-23T23:56:31.820Z,5.60
2022-11-23T23:59:00.039Z,6.80
